Etusivu
METAR-TAF:

METAR-TAF

Lentoasemat :

Palanga, Liettua

Leveyspiiri: 55-55-12N, Pituuspiiri: 021-03E, korkeus merenpinnasta: 10 m

Tämänhetkinen sää

Tämä raportti tehtiin 25 minuuttia sitten, kello 18.20 UTC
Tuuli 5 kn pohjoisesta
Lämpötila 18°C
Kosteus 68%
Ilmanpaine 1019 hPa
Näkyvyys 10 km tai enemmän
ei pilviä alle 1500 m:ssä eikä cumulonimbus-pilviä

METAR: EYPA 221820Z 36005KT CAVOK 18/12 Q1019

Aika: 21:45 (18:45 UTC)

Sääennuste

Tämä raportti tehtiin 1 tunti ja 45 minuuttia sitten, kello 17.00 UTC
Ennuste voimassa 22. päivästä klo 18 UTC - 23. päivään klo 18 UTC
Tuuli 4 kn eri suunnista
Näkyvyys: 7000 m
Tulossa
23. päivästä klo 10 UTC - 23. päivään klo 12 UTC
Hajanaisia pilviä 4000 ft:n korkeudessa
Ajoittain
23. päivästä klo 12 UTC - 23. päivään klo 18 UTC
Tuuli 14 kn idästä

TAF: EYPA 221700Z 2218/2318 VRB04KT 7000 NSC BECMG 2310/2312 SCT040 TEMPO 2312/2318 09014KT

Säähavainnot ja -ennusteet yli 4000 lentoasemalta (METAR- ja TAF-raportit).

Käytössä olevat sääasemat on merkitty karttaan keltaisilla ja punaisilla pisteillä.

Aseta hiiri pisteen päälle nähdäksesi sääaseman nimen.

Klikkaa sitten nähdäksesi säähavainnot ja -ennusteet.

Kartan vaihtaminen: klikkaa mustalla rastilla varustettuja vihreitä pisteitä, niin voit zoomata sisään; viivalla varustettua vihreää pistettä, niin voit zoomata ulos tai vihreitä nuolia, niin pääset viereisille kartoille.


METAR-TAF: